createdAt,value
2022-08-05T00:06:29.273Z,14
2022-08-05T00:22:55.281Z,13
2022-08-05T00:56:08.873Z,13
2022-08-05T01:13:05.049Z,12
2022-08-05T01:29:23.461Z,13
2022-08-05T01:46:07.110Z,13
2022-08-05T02:02:37.400Z,13
2022-08-05T02:19:09.459Z,12
2022-08-05T02:35:56.231Z,12
2022-08-05T02:52:25.903Z,12
2022-08-05T03:08:57.813Z,12
2022-08-05T03:26:05.005Z,12
2022-08-05T03:42:09.485Z,11
2022-08-05T03:58:46.486Z,11
2022-08-05T04:15:24.328Z,11
2022-08-05T04:31:57.853Z,10
2022-08-05T04:48:33.723Z,10
2022-08-05T05:05:16.877Z,11
2022-08-05T05:21:46.463Z,11
2022-08-05T05:38:27.267Z,11
2022-08-05T05:54:54.364Z,11
2022-08-05T06:11:29.708Z,11
2022-08-05T06:28:11.070Z,12
2022-08-05T06:44:41.073Z,12
2022-08-05T07:01:21.028Z,12
2022-08-05T07:17:59.113Z,11
2022-08-05T07:34:30.304Z,12
2022-08-05T07:51:08.697Z,12
2022-08-05T08:07:59.030Z,11
2022-08-05T08:24:20.194Z,13
2022-08-05T08:40:57.064Z,13
2022-08-05T08:57:48.110Z,15
2022-08-05T09:14:57.153Z,12
2022-08-05T09:30:44.933Z,12
2022-08-05T09:47:21.812Z,10
2022-08-05T10:03:59.896Z,10
2022-08-05T10:20:35.220Z,13
2022-08-05T10:37:12.428Z,8
2022-08-05T10:53:49.666Z,13
2022-08-05T11:10:29.329Z,9
2022-08-05T11:27:03.985Z,10
2022-08-05T11:44:05.820Z,8
2022-08-05T12:00:17.634Z,12
2022-08-05T12:16:53.529Z,11
2022-08-05T12:33:36.620Z,11
2022-08-05T12:50:07.590Z,9
2022-08-05T13:06:39.782Z,9
2022-08-05T13:23:18.297Z,8
2022-08-05T13:40:16.646Z,12
2022-08-05T13:56:31.429Z,12
2022-08-05T14:13:08.363Z,12
2022-08-05T14:29:45.657Z,13
2022-08-05T14:46:18.585Z,12
2022-08-05T15:02:55.968Z,11
2022-08-05T15:19:34.427Z,13
2022-08-05T15:36:17.699Z,13
2022-08-05T16:09:26.951Z,12
2022-08-05T16:26:04.388Z,14
2022-08-05T16:42:41.280Z,14
2022-08-05T16:59:18.137Z,14
2022-08-05T17:16:19.493Z,14
2022-08-05T17:32:34.613Z,14
2022-08-05T17:49:10.170Z,14
2022-08-05T18:05:52.914Z,14
2022-08-05T18:22:19.574Z,14
2022-08-05T18:38:57.053Z,13
2022-08-05T18:55:34.426Z,13
2022-08-05T19:12:11.414Z,12
2022-08-05T19:28:47.305Z,11
2022-08-05T19:45:25.557Z,11
2022-08-05T20:01:59.355Z,9
2022-08-05T20:18:36.552Z,9
2022-08-05T20:35:12.012Z,8
2022-08-05T20:51:46.872Z,7
2022-08-05T21:08:26.930Z,7
2022-08-05T21:24:58.611Z,6
2022-08-05T21:41:35.584Z,6
2022-08-05T21:58:04.372Z,6
2022-08-05T22:14:38.790Z,7
2022-08-05T22:31:13.027Z,7
2022-08-05T22:47:49.737Z,6
2022-08-05T23:04:22.205Z,7
2022-08-05T23:20:56.430Z,6
2022-08-05T23:37:34.222Z,7
2022-08-05T23:54:04.459Z,6
